createdAt,value
2023-03-22T00:00:30.214Z,52.55
2023-03-22T00:05:58.638Z,54.17
2023-03-22T00:11:03.035Z,56.27
2023-03-22T00:16:07.168Z,58.18
2023-03-22T00:21:16.158Z,59.73
2023-03-22T00:26:19.249Z,68.70
2023-03-22T00:31:22.364Z,73.36
2023-03-22T00:36:26.350Z,66.42
2023-03-22T00:41:29.464Z,62.36
2023-03-22T00:46:32.553Z,55.25
2023-03-22T00:51:35.791Z,53.60
2023-03-22T00:56:38.814Z,55.46
2023-03-22T01:01:41.883Z,56.44
2023-03-22T01:06:45.095Z,58.71
2023-03-22T01:11:48.194Z,68.61
2023-03-22T01:16:51.877Z,72.05
2023-03-22T01:21:55.736Z,67.20
2023-03-22T01:26:58.855Z,63.27
2023-03-22T01:32:02.153Z,60.73
2023-03-22T01:37:05.370Z,54.61
2023-03-22T01:42:14.504Z,53.63
2023-03-22T01:47:17.620Z,55.35
2023-03-22T01:52:20.829Z,56.77
2023-03-22T01:57:24.826Z,58.07
2023-03-22T02:02:31.174Z,60.50
2023-03-22T02:07:34.457Z,70.04
2023-03-22T02:13:27.634Z,73.25
2023-03-22T02:19:21.018Z,66.22
2023-03-22T02:24:30.071Z,62.56
2023-03-22T02:29:48.837Z,55.47
2023-03-22T02:35:13.544Z,54.72
2023-03-22T02:41:01.301Z,56.17
2023-03-22T02:46:23.587Z,57.52
2023-03-22T02:51:46.115Z,59.57
2023-03-22T02:57:00.699Z,70.53
2023-03-22T03:02:05.880Z,72.31
2023-03-22T03:07:14.555Z,66.28
2023-03-22T03:12:25.313Z,62.57
2023-03-22T03:18:05.235Z,55.73
2023-03-22T03:23:28.846Z,54.32
2023-03-22T03:29:06.354Z,56.76
2023-03-22T03:34:27.827Z,57.65
2023-03-22T03:39:37.335Z,59.72
2023-03-22T03:44:41.707Z,69.41
2023-03-22T03:49:44.811Z,72.99
2023-03-22T03:54:48.015Z,67.65
2023-03-22T03:59:51.091Z,63.95
2023-03-22T04:04:54.092Z,60.43
2023-03-22T04:09:57.226Z,54.02
2023-03-22T04:15:00.680Z,53.59
2023-03-22T04:20:06.356Z,55.38
2023-03-22T04:25:13.350Z,57.78
2023-03-22T04:30:19.252Z,59.68
2023-03-22T04:35:23.308Z,68.71
2023-03-22T04:40:27.238Z,73.51
2023-03-22T04:45:32.622Z,68.08
2023-03-22T04:50:35.689Z,64.17
2023-03-22T04:55:39.104Z,61.18
2023-03-22T05:00:42.514Z,55.15
2023-03-22T05:05:57.089Z,54.15
2023-03-22T05:11:08.390Z,56.13
2023-03-22T05:16:12.451Z,57.89
2023-03-22T05:21:22.248Z,59.65
2023-03-22T05:26:27.248Z,67.20
2023-03-22T05:31:30.874Z,71.51
2023-03-22T05:36:36.725Z,68.37
2023-03-22T05:41:39.809Z,65.29
2023-03-22T05:46:42.888Z,62.79
2023-03-22T05:51:46.133Z,61.14
2023-03-22T05:56:49.441Z,55.17
2023-03-22T06:01:52.629Z,54.76
2023-03-22T06:06:56.706Z,56.05
2023-03-22T06:11:59.884Z,57.75
2023-03-22T06:17:03.762Z,61.17
2023-03-22T06:22:06.820Z,68.61
2023-03-22T06:27:10.863Z,71.07
2023-03-22T06:32:13.954Z,67.47
2023-03-22T06:37:17.255Z,64.69
2023-03-22T06:42:20.574Z,62.05
2023-03-22T06:47:25.020Z,60.71
2023-03-22T06:52:28.102Z,54.87
2023-03-22T06:57:31.426Z,58.48
2023-03-22T07:02:34.531Z,64.97
2023-03-22T07:07:38.053Z,66.14
2023-03-22T07:12:41.873Z,63.34
2023-03-22T07:17:45.410Z,62.18
2023-03-22T07:22:51.412Z,61.09
2023-03-22T07:27:54.497Z,60.21
2023-03-22T07:32:57.566Z,55.42
2023-03-22T07:38:01.420Z,54.42
2023-03-22T07:43:04.500Z,58.67
2023-03-22T07:48:11.532Z,66.60
2023-03-22T07:53:15.124Z,69.00
2023-03-22T07:58:18.337Z,66.01
2023-03-22T08:03:22.491Z,63.69
2023-03-22T08:08:26.708Z,61.66
2023-03-22T08:13:30.511Z,59.97
2023-03-22T08:18:33.720Z,54.79
2023-03-22T08:23:41.824Z,54.90
2023-03-22T08:28:45.773Z,57.10
2023-03-22T08:33:49.512Z,59.80
2023-03-22T08:38:53.331Z,69.76
2023-03-22T08:43:56.663Z,71.16
2023-03-22T08:49:01.395Z,66.29
2023-03-22T08:54:05.604Z,63.14
2023-03-22T08:59:10.471Z,61.35
2023-03-22T09:04:14.272Z,56.10
2023-03-22T09:09:17.689Z,57.25
2023-03-22T09:14:21.000Z,60.11
2023-03-22T09:19:24.201Z,67.94
2023-03-22T09:24:27.308Z,68.99
2023-03-22T09:29:31.412Z,64.97
2023-03-22T09:34:34.685Z,63.28
2023-03-22T09:39:38.692Z,61.37
2023-03-22T09:44:46.287Z,60.75
2023-03-22T09:50:01.702Z,56.91
2023-03-22T09:55:20.892Z,55.88
2023-03-22T10:00:53.777Z,59.92
2023-03-22T10:06:29.397Z,69.37
2023-03-22T10:11:46.215Z,67.59
2023-03-22T10:16:56.445Z,64.69
2023-03-22T10:22:04.122Z,62.21
2023-03-22T10:27:20.932Z,60.56
2023-03-22T10:32:56.490Z,56.36
2023-03-22T10:38:07.402Z,58.14
2023-03-22T10:43:33.398Z,65.79
2023-03-22T10:48:47.915Z,66.39
2023-03-22T10:53:55.268Z,63.65
2023-03-22T10:58:58.694Z,61.30
2023-03-22T11:04:17.492Z,60.02
2023-03-22T11:09:24.558Z,56.51
2023-03-22T11:14:36.903Z,57.58
2023-03-22T11:19:52.074Z,60.77
2023-03-22T11:24:57.166Z,69.41
2023-03-22T11:30:23.923Z,69.67
2023-03-22T11:35:29.770Z,65.41
2023-03-22T11:40:37.062Z,63.08
2023-03-22T11:45:44.398Z,61.31
2023-03-22T11:50:49.073Z,56.44
2023-03-22T11:55:57.373Z,57.99
2023-03-22T12:01:04.072Z,66.17
2023-03-22T12:06:26.692Z,65.19
2023-03-22T12:11:39.000Z,63.07
2023-03-22T12:16:56.445Z,61.73
2023-03-22T12:22:00.381Z,60.73
2023-03-22T12:27:27.383Z,56.72
2023-03-22T12:32:38.756Z,57.46
2023-03-22T12:37:48.176Z,65.16
2023-03-22T12:43:24.100Z,65.04
2023-03-22T12:48:33.570Z,62.48
2023-03-22T12:53:52.567Z,60.62
2023-03-22T12:59:03.704Z,56.64
2023-03-22T13:04:26.057Z,59.53
2023-03-22T13:09:50.465Z,65.69
2023-03-22T13:15:13.878Z,64.72
2023-03-22T13:20:20.328Z,61.33
2023-03-22T13:25:39.800Z,56.11
2023-03-22T13:30:59.019Z,59.60
2023-03-22T13:36:32.212Z,62.41
2023-03-22T13:41:36.766Z,69.63
2023-03-22T13:46:39.941Z,66.30
2023-03-22T13:51:44.951Z,63.66
2023-03-22T13:56:56.756Z,61.53
2023-03-22T14:02:22.491Z,60.15
2023-03-22T14:07:40.399Z,55.26
2023-03-22T14:13:25.733Z,56.96
2023-03-22T14:18:32.810Z,60.07
